Time;durP1;ratioP1;P1;durP2;ratioP2;P2;SDS_P1;SDS_P2;PMS_P1;PMS_P2;Temp;Humidity;BMP_temperature;BMP_pressure;BME280_temperature;BME280_humidity;BME280_pressure;Samples;Min_cycle;Max_cycle;Signal;HPM_P1;HPM_P2
2022/03/10 00:02:05;;;;;;;32.83;18.38;;;;;;;4.28;59.23;102283.22;5077304;28;20085;-68
2022/03/10 00:04:31;;;;;;;38.90;18.70;;;;;;;4.22;59.78;102283.66;5095520;28;20027;-65
2022/03/10 00:06:58;;;;;;;40.72;18.67;;;;;;;4.26;58.98;102287.66;5095384;28;20387;-68
2022/03/10 00:09:23;;;;;;;35.95;18.67;;;;;;;4.20;59.50;102285.50;5093900;28;20103;-68
2022/03/10 00:11:49;;;;;;;37.38;18.13;;;;;;;4.17;60.52;102293.38;5076596;28;20067;-68
2022/03/10 00:14:14;;;;;;;32.88;17.80;;;;;;;4.16;60.57;102284.91;5076474;28;20028;-68
2022/03/10 00:16:39;;;;;;;33.13;18.30;;;;;;;4.09;60.37;102291.38;5094734;28;20448;-70
2022/03/10 00:19:05;;;;;;;37.67;18.15;;;;;;;4.09;59.50;102278.59;5093376;28;20024;-68
2022/03/10 00:21:30;;;;;;;39.72;18.20;;;;;;;3.86;59.70;102293.00;5094650;28;20433;-67
2022/03/10 00:23:55;;;;;;;31.63;17.60;;;;;;;3.91;60.94;102290.91;5076378;28;20024;-68
2022/03/10 00:26:21;;;;;;;35.92;17.38;;;;;;;3.93;60.66;102293.38;5094262;28;20024;-68
2022/03/10 00:28:46;;;;;;;34.90;17.67;;;;;;;3.89;60.69;102300.44;5093927;28;20031;-69
2022/03/10 00:31:12;;;;;;;35.03;18.08;;;;;;;3.83;60.22;102303.44;5093583;28;20498;-69
2022/03/10 00:33:37;;;;;;;32.22;17.30;;;;;;;3.81;60.92;102300.16;5094356;28;20028;-68
2022/03/10 00:36:02;;;;;;;36.45;18.55;;;;;;;3.92;61.26;102302.78;5094972;28;20028;-67
2022/03/10 00:38:28;;;;;;;37.83;18.50;;;;;;;3.87;61.27;102301.47;5094077;28;20491;-67
2022/03/10 00:40:53;;;;;;;36.55;18.45;;;;;;;3.85;61.00;102293.88;5075841;28;20057;-68
2022/03/10 00:43:18;;;;;;;39.70;18.48;;;;;;;3.95;60.64;102305.13;5094577;28;20128;-68
2022/03/10 00:45:44;;;;;;;39.38;18.25;;;;;;;4.02;59.37;102292.72;5075924;28;20025;-69
2022/03/10 00:48:09;;;;;;;36.28;18.40;;;;;;;4.00;57.15;102303.09;5074983;28;20410;-68
2022/03/10 00:50:35;;;;;;;38.05;18.05;;;;;;;4.06;56.24;102299.28;5076124;28;20035;-69
2022/03/10 00:53:00;;;;;;;36.90;18.52;;;;;;;4.21;56.42;102294.81;5093435;28;20028;-68
2022/03/10 00:55:26;;;;;;;35.83;17.40;;;;;;;4.19;56.62;102291.56;5094392;28;20038;-68
2022/03/10 00:57:51;;;;;;;44.85;18.42;;;;;;;4.19;57.74;102289.81;5094256;28;20107;-68
2022/03/10 01:00:18;;;;;;;37.40;18.80;;;;;;;4.24;56.24;102290.31;5094222;28;20020;-67
2022/03/10 01:02:43;;;;;;;36.42;18.75;;;;;;;4.32;56.35;102297.44;5094360;28;20048;-67
2022/03/10 01:05:09;;;;;;;35.83;18.90;;;;;;;4.18;58.12;102292.47;5094328;28;20055;-68
2022/03/10 01:07:35;;;;;;;40.17;18.83;;;;;;;4.28;55.50;102289.16;5075247;28;20046;-67
2022/03/10 01:10:01;;;;;;;38.97;19.80;;;;;;;4.15;55.97;102287.59;5093200;28;20024;-67
2022/03/10 01:12:27;;;;;;;37.72;18.92;;;;;;;4.26;56.47;102285.91;5094137;28;20034;-66
2022/03/10 01:14:52;;;;;;;43.80;19.00;;;;;;;4.16;55.50;102289.22;5094066;28;20474;-67
2022/03/10 01:17:18;;;;;;;37.92;19.20;;;;;;;4.23;56.31;102280.16;5094109;28;20099;-66
2022/03/10 01:19:44;;;;;;;41.63;18.90;;;;;;;4.03;56.34;102297.75;5075594;28;20068;-66
2022/03/10 01:22:09;;;;;;;42.70;20.08;;;;;;;4.05;57.19;102289.94;5075610;28;20543;-66
2022/03/10 01:24:35;;;;;;;38.28;19.50;;;;;;;3.89;57.14;102284.28;5075680;28;20488;-67
2022/03/10 01:27:00;;;;;;;38.53;19.25;;;;;;;3.73;57.63;102281.94;5092507;28;20020;-66
2022/03/10 01:29:25;;;;;;;39.00;20.38;;;;;;;4.04;56.25;102284.03;5093802;28;20103;-66
2022/03/10 01:31:51;;;;;;;44.03;19.95;;;;;;;3.94;57.10;102280.50;5075845;28;20031;-66
2022/03/10 01:34:16;;;;;;;41.53;20.17;;;;;;;3.69;58.36;102285.66;5075640;28;20028;-67
2022/03/10 01:36:42;;;;;;;42.88;18.75;;;;;;;3.73;58.28;102287.88;5075518;28;20024;-66
2022/03/10 01:39:08;;;;;;;38.25;18.98;;;;;;;3.74;58.70;102292.09;5075272;28;20031;-66
2022/03/10 01:41:34;;;;;;;39.60;19.65;;;;;;;3.71;59.30;102292.31;5075269;28;20088;-67
2022/03/10 01:44:08;;;;;;;40.08;19.30;;;;;;;3.63;58.23;102286.06;5075398;28;20065;-66
2022/03/10 01:46:34;;;;;;;43.05;19.83;;;;;;;3.61;59.31;102281.88;5093530;28;20043;-67
2022/03/10 01:49:00;;;;;;;40.72;19.40;;;;;;;3.84;57.00;102290.53;5091888;28;20070;-67
2022/03/10 01:51:26;;;;;;;36.95;18.52;;;;;;;3.79;57.47;102290.00;5093055;28;20032;-66
2022/03/10 01:53:52;;;;;;;37.63;19.17;;;;;;;3.75;59.21;102290.34;5093444;28;20529;-67
2022/03/10 01:56:19;;;;;;;46.40;20.48;;;;;;;3.65;59.25;102295.25;5093313;28;20421;-67
2022/03/10 01:58:49;;;;;;;40.15;18.90;;;;;;;3.70;59.39;102290.66;5092042;28;20479;-66
2022/03/10 02:01:18;;;;;;;41.88;19.63;;;;;;;3.65;59.73;102291.88;5091967;28;20031;-66
2022/03/10 02:03:43;;;;;;;39.90;19.27;;;;;;;3.64;58.85;102285.97;5075183;28;20367;-66
2022/03/10 02:06:10;;;;;;;38.03;19.67;;;;;;;3.69;58.77;102286.47;5093235;28;20020;-67
2022/03/10 02:11:20;;;;;;;45.42;18.88;;;;;;;3.53;59.11;102290.97;5093120;28;20458;-66
2022/03/10 02:13:46;;;;;;;41.40;19.70;;;;;;;3.41;59.46;102290.06;5093233;28;20099;-67
2022/03/10 02:19:01;;;;;;;39.92;19.60;;;;;;;3.42;60.73;102290.88;5093472;28;20085;-68
2022/03/10 02:21:26;;;;;;;41.38;19.30;;;;;;;3.43;60.78;102290.78;5093165;28;20028;-67
2022/03/10 02:23:52;;;;;;;39.58;19.00;;;;;;;3.43;60.24;102288.25;5093175;28;20016;-68
2022/03/10 02:26:18;;;;;;;36.78;19.25;;;;;;;3.45;60.20;102291.47;5093055;28;20024;-69
2022/03/10 02:28:43;;;;;;;38.20;18.65;;;;;;;3.39;60.49;102290.19;5074987;28;20406;-67
2022/03/10 02:31:09;;;;;;;38.40;18.58;;;;;;;3.47;59.75;102292.22;5092990;28;20020;-68
2022/03/10 02:33:35;;;;;;;33.58;18.20;;;;;;;3.46;59.54;102292.31;5093116;28;20536;-67
2022/03/10 02:36:01;;;;;;;36.78;19.20;;;;;;;3.53;60.65;102301.22;5074870;28;20028;-67
2022/03/10 02:38:26;;;;;;;34.58;18.63;;;;;;;3.35;60.32;102298.16;5074888;28;20386;-69
2022/03/10 02:40:52;;;;;;;36.67;19.00;;;;;;;3.37;61.04;102299.69;5074886;28;20012;-67
2022/03/10 02:43:19;;;;;;;40.05;19.02;;;;;;;3.23;61.58;102298.97;5074778;28;20530;-67
2022/03/10 02:45:45;;;;;;;41.63;18.30;;;;;;;3.38;61.22;102293.66;5092858;28;20032;-67
2022/03/10 02:48:11;;;;;;;36.45;18.20;;;;;;;3.34;61.52;102293.97;5092737;28;20494;-67
2022/03/10 02:50:36;;;;;;;41.40;18.42;;;;;;;3.28;60.63;102287.53;5092946;28;20032;-67
2022/03/10 02:53:02;;;;;;;37.28;17.48;;;;;;;3.26;60.21;102297.03;5092855;28;20024;-67
2022/03/10 02:55:28;;;;;;;40.28;18.85;;;;;;;3.32;60.15;102291.50;5092958;28;20027;-67
2022/03/10 02:57:54;;;;;;;44.50;18.33;;;;;;;3.26;61.37;102293.66;5092789;28;20036;-67
2022/03/10 03:00:19;;;;;;;37.95;18.95;;;;;;;3.07;61.40;102299.97;5074583;28;20055;-67
2022/03/10 03:02:46;;;;;;;36.45;18.10;;;;;;;3.09;61.79;102297.31;5095046;28;20386;-67
2022/03/10 03:05:12;;;;;;;34.35;18.25;;;;;;;2.97;61.43;102293.84;5095437;28;20024;-67
2022/03/10 03:07:38;;;;;;;38.45;18.70;;;;;;;3.00;61.56;102290.28;5078515;28;20063;-67
2022/03/10 03:10:04;;;;;;;34.22;17.98;;;;;;;2.94;62.10;102304.25;5095322;28;20059;-67
2022/03/10 03:12:30;;;;;;;35.03;18.02;;;;;;;2.89;62.60;102296.88;5096558;28;20020;-67
2022/03/10 03:14:56;;;;;;;40.22;19.08;;;;;;;2.87;62.93;102297.88;5096553;28;20031;-67
2022/03/10 03:17:21;;;;;;;40.00;19.13;;;;;;;2.87;63.34;102305.56;5096545;28;20470;-67
2022/03/10 03:19:46;;;;;;;35.63;18.23;;;;;;;2.77;63.87;102312.19;5078120;28;20028;-67
2022/03/10 03:22:11;;;;;;;35.05;17.73;;;;;;;2.78;64.58;102311.25;5096355;28;20459;-67
2022/03/10 03:24:37;;;;;;;38.38;17.85;;;;;;;2.65;64.04;102314.59;5096299;28;20016;-67
2022/03/10 03:27:03;;;;;;;40.10;18.70;;;;;;;2.62;64.89;102322.44;5096266;28;20493;-67
2022/03/10 03:29:28;;;;;;;37.28;18.92;;;;;;;2.63;65.41;102318.97;5096022;28;20024;-67
2022/03/10 03:31:54;;;;;;;33.38;18.02;;;;;;;2.59;65.26;102312.44;5095960;28;20165;-67
2022/03/10 03:34:19;;;;;;;34.83;18.67;;;;;;;2.59;65.58;102315.00;5077725;28;20036;-67
2022/03/10 03:36:46;;;;;;;36.20;18.65;;;;;;;2.56;65.68;102324.56;5095909;28;20028;-67
2022/03/10 03:39:12;;;;;;;40.17;18.30;;;;;;;2.58;64.82;102322.72;5096183;28;20016;-67
2022/03/10 03:41:39;;;;;;;41.85;18.38;;;;;;;2.52;65.26;102329.03;5095916;28;20027;-67
2022/03/10 03:44:06;;;;;;;33.70;17.80;;;;;;;2.66;64.51;102323.88;5094501;28;20024;-68
2022/03/10 03:46:32;;;;;;;37.40;18.15;;;;;;;2.66;64.61;102328.19;5095910;28;20024;-67
2022/03/10 03:48:57;;;;;;;40.55;18.75;;;;;;;2.58;64.61;102327.84;5095495;28;20119;-67
2022/03/10 03:51:23;;;;;;;38.67;18.70;;;;;;;2.52;64.95;102323.94;5077482;28;20675;-68
2022/03/10 03:53:48;;;;;;;38.55;18.27;;;;;;;2.50;65.12;102330.84;5095507;28;20089;-67
2022/03/10 03:56:14;;;;;;;36.72;18.63;;;;;;;2.41;65.50;102332.25;5094234;28;20531;-67
2022/03/10 03:58:39;;;;;;;35.45;18.52;;;;;;;2.36;65.71;102326.66;5077250;28;20031;-68
2022/03/10 04:01:04;;;;;;;34.70;18.35;;;;;;;2.39;65.26;102330.75;5095419;28;20012;-67
2022/03/10 04:03:30;;;;;;;38.72;18.35;;;;;;;2.37;66.05;102335.94;5095628;28;20062;-67
2022/03/10 04:05:55;;;;;;;37.13;18.27;;;;;;;2.39;67.03;102333.28;5095491;28;20089;-66
2022/03/10 04:08:21;;;;;;;37.35;18.65;;;;;;;2.35;66.29;102337.75;5095300;28;20027;-67
2022/03/10 04:10:47;;;;;;;34.45;17.98;;;;;;;2.23;66.93;102343.59;5095307;28;20443;-67
2022/03/10 04:13:12;;;;;;;40.50;18.50;;;;;;;2.18;67.63;102343.06;5094937;28;20107;-67
2022/03/10 04:15:37;;;;;;;37.20;18.00;;;;;;;2.15;67.53;102345.81;5095156;28;20145;-67
2022/03/10 04:18:03;;;;;;;35.90;18.25;;;;;;;2.14;67.05;102345.00;5076861;28;20024;-67
2022/03/10 04:20:28;;;;;;;36.75;18.52;;;;;;;2.18;67.31;102348.16;5093696;28;20012;-67
2022/03/10 04:22:54;;;;;;;34.13;18.02;;;;;;;2.05;67.95;102350.66;5093817;28;20057;-67
2022/03/10 04:25:19;;;;;;;36.33;17.90;;;;;;;2.04;67.72;102343.91;5094998;28;20024;-67
2022/03/10 04:27:44;;;;;;;33.78;17.92;;;;;;;2.19;67.34;102342.97;5094870;28;20020;-67
2022/03/10 04:30:11;;;;;;;35.75;18.40;;;;;;;2.13;67.13;102345.91;5076685;28;20098;-67
2022/03/10 04:32:44;;;;;;;37.47;19.17;;;;;;;1.92;67.53;102349.75;5076588;28;20057;-68
2022/03/10 04:35:10;;;;;;;;;;;;;;;1.89;67.80;102345.63;5095259;28;20027;-67
2022/03/10 04:37:35;;;;;;;34.25;17.08;;;;;;;1.89;68.36;102347.38;5076563;28;19914;-67
2022/03/10 04:40:01;;;;;;;34.42;17.85;;;;;;;2.06;67.73;102347.19;5076432;28;20440;-67
2022/03/10 04:42:27;;;;;;;35.67;18.33;;;;;;;2.05;67.09;102345.56;5093521;28;20513;-68
2022/03/10 04:44:53;;;;;;;31.92;17.40;;;;;;;2.09;67.30;102344.44;5094771;28;20067;-67
2022/03/10 04:47:19;;;;;;;33.60;17.60;;;;;;;2.04;67.57;102343.91;5094673;28;20036;-67
2022/03/10 04:49:44;;;;;;;33.80;17.30;;;;;;;2.05;66.88;102340.44;5076062;28;20472;-67
2022/03/10 04:52:09;;;;;;;37.35;17.75;;;;;;;2.23;66.21;102341.06;5094447;28;20042;-67
2022/03/10 04:54:34;;;;;;;34.47;17.33;;;;;;;2.22;65.56;102336.88;5094443;28;20082;-68
2022/03/10 04:57:00;;;;;;;37.80;18.30;;;;;;;2.26;66.18;102341.69;5094332;28;20016;-67
2022/03/10 04:59:26;;;;;;;33.92;17.20;;;;;;;2.17;65.65;102337.16;5094275;28;20020;-68
2022/03/10 05:01:51;;;;;;;35.17;18.35;;;;;;;2.02;66.58;102338.91;5094621;28;20387;-68
2022/03/10 05:04:16;;;;;;;39.38;18.95;;;;;;;1.89;67.53;102338.00;5094399;28;20020;-68
2022/03/10 05:06:42;;;;;;;32.63;18.08;;;;;;;1.73;68.12;102340.66;5094428;28;20024;-67
2022/03/10 05:09:07;;;;;;;36.60;18.75;;;;;;;1.76;68.12;102343.00;5076202;28;20027;-67
2022/03/10 05:11:32;;;;;;;39.08;17.80;;;;;;;1.79;68.71;102342.84;5076090;28;20031;-68
2022/03/10 05:13:57;;;;;;;35.88;18.25;;;;;;;1.87;68.82;102336.44;5076031;28;20020;-67
2022/03/10 05:16:23;;;;;;;37.15;19.20;;;;;;;1.91;67.84;102346.38;5076054;28;20030;-68
2022/03/10 05:18:48;;;;;;;32.97;17.73;;;;;;;1.85;67.90;102343.38;5094111;28;20028;-68
2022/03/10 05:21:13;;;;;;;43.35;18.00;;;;;;;1.91;68.13;102343.81;5075820;28;20074;-67
2022/03/10 05:23:39;;;;;;;31.25;17.17;;;;;;;1.84;68.48;102336.63;5076013;28;20024;-68
2022/03/10 05:26:04;;;;;;;36.75;17.58;;;;;;;1.85;68.71;102338.28;5093353;28;20024;-69
2022/03/10 05:28:30;;;;;;;36.13;17.40;;;;;;;1.79;68.63;102337.72;5094228;28;20024;-68
2022/03/10 05:30:55;;;;;;;34.13;18.10;;;;;;;1.79;69.08;102339.47;5093874;28;20471;-67
2022/03/10 05:33:21;;;;;;;33.42;17.20;;;;;;;1.73;69.46;102345.75;5093752;28;20076;-68
2022/03/10 05:35:46;;;;;;;31.95;17.73;;;;;;;1.72;68.70;102340.72;5093881;28;20035;-67
2022/03/10 05:38:12;;;;;;;34.38;17.25;;;;;;;1.75;69.48;102345.66;5093795;28;20020;-68
2022/03/10 05:40:37;;;;;;;35.72;17.60;;;;;;;1.80;68.34;102351.28;5075487;28;20094;-68
2022/03/10 05:43:02;;;;;;;36.78;17.65;;;;;;;1.72;69.20;102345.81;5092693;28;20038;-68
2022/03/10 05:45:28;;;;;;;36.15;17.52;;;;;;;1.68;68.93;102347.75;5093565;28;20027;-67
2022/03/10 05:47:56;;;;;;;35.25;18.00;;;;;;;1.67;69.46;102335.91;5093322;28;20111;-68
2022/03/10 05:50:23;;;;;;;37.15;17.90;;;;;;;1.64;69.45;102338.66;5075425;28;20020;-68
2022/03/10 05:52:49;;;;;;;31.80;17.20;;;;;;;1.74;68.73;102339.72;5075387;28;20073;-68
2022/03/10 05:55:15;;;;;;;34.03;17.13;;;;;;;1.57;69.12;102327.16;5093350;28;20023;-68
2022/03/10 05:57:41;;;;;;;35.03;17.45;;;;;;;1.57;69.42;102342.47;5092225;28;20063;-69
2022/03/10 06:00:10;;;;;;;35.78;17.17;;;;;;;1.64;69.39;102337.81;5092812;28;20043;-68
2022/03/10 06:02:36;;;;;;;33.03;17.55;;;;;;;1.55;69.54;102350.19;5075081;28;20084;-68
2022/03/10 06:05:02;;;;;;;38.10;18.10;;;;;;;1.62;69.72;102355.75;5092529;28;20028;-69
2022/03/10 06:07:28;;;;;;;38.80;17.45;;;;;;;1.66;69.35;102353.84;5093046;28;20098;-68
2022/03/10 06:09:55;;;;;;;36.17;17.98;;;;;;;1.64;69.77;102353.09;5075464;28;20050;-68
2022/03/10 06:12:25;;;;;;;35.22;16.40;;;;;;;1.62;70.22;102352.41;5093421;28;20024;-68
2022/03/10 06:15:09;;;;;;;36.38;17.08;;;;;;;1.64;69.77;102351.41;5074430;28;20425;-69
2022/03/10 06:17:35;;;;;;;37.60;17.50;;;;;;;1.65;69.58;102363.22;5091938;28;20070;-67
2022/03/10 06:20:01;;;;;;;34.95;17.33;;;;;;;1.78;69.04;102358.19;5093321;28;20024;-67
2022/03/10 06:22:31;;;;;;;37.20;16.90;;;;;;;1.76;69.27;102360.84;5075028;28;20035;-68
2022/03/10 06:24:58;;;;;;;34.03;17.58;;;;;;;1.79;68.12;102360.69;5091916;28;20031;-69
2022/03/10 06:27:24;;;;;;;31.88;16.63;;;;;;;1.67;68.62;102353.75;5075555;28;20063;-68
2022/03/10 06:29:50;;;;;;;33.20;16.70;;;;;;;1.80;67.77;102359.75;5093130;28;20065;-68
2022/03/10 06:32:20;;;;;;;35.67;16.80;;;;;;;1.95;67.51;102362.31;5093023;28;20077;-68
2022/03/10 06:34:47;;;;;;;33.40;16.48;;;;;;;1.83;67.86;102361.31;5074827;28;20074;-67
2022/03/10 06:37:13;;;;;;;33.38;16.75;;;;;;;1.98;67.58;102362.13;5078012;28;20107;-68
2022/03/10 06:39:39;;;;;;;36.30;16.55;;;;;;;2.12;66.63;102367.22;5095752;28;20139;-69
2022/03/10 06:42:05;;;;;;;34.50;18.45;;;;;;;2.17;66.29;102365.19;5078877;28;20024;-67
2022/03/10 06:44:31;;;;;;;37.78;17.45;;;;;;;2.14;66.02;102356.94;5061942;28;20032;-68
2022/03/10 06:46:57;;;;;;;37.65;16.45;;;;;;;2.25;65.77;102359.66;5097177;28;20121;-68
2022/03/10 06:49:23;;;;;;;37.63;18.15;;;;;;;2.25;65.68;102357.91;5078823;28;20043;-68
2022/03/10 06:51:49;;;;;;;34.55;16.10;;;;;;;2.24;66.12;102360.53;5097082;28;20032;-68
2022/03/10 06:54:15;;;;;;;35.22;17.60;;;;;;;2.38;65.58;102370.72;5078714;28;20122;-67
2022/03/10 06:56:42;;;;;;;33.97;17.23;;;;;;;2.49;65.08;102365.78;5096832;28;20418;-69
2022/03/10 06:59:07;;;;;;;36.58;18.23;;;;;;;2.65;64.34;102369.94;5078348;28;20020;-69
2022/03/10 07:01:33;;;;;;;34.83;16.52;;;;;;;2.69;65.04;102373.94;5078346;28;20031;-68
2022/03/10 07:03:59;;;;;;;36.17;17.02;;;;;;;2.70;65.13;102373.00;5096496;28;20039;-68
2022/03/10 07:06:25;;;;;;;32.15;17.48;;;;;;;2.95;63.62;102372.28;5095141;28;20111;-68
2022/03/10 07:08:51;;;;;;;32.67;16.67;;;;;;;3.09;62.81;102373.94;5095057;28;20123;-68
2022/03/10 07:11:17;;;;;;;36.20;17.30;;;;;;;3.05;63.61;102372.50;5096351;28;20020;-69
2022/03/10 07:13:42;;;;;;;37.92;16.95;;;;;;;3.28;62.51;102363.34;5096605;28;20076;-70
2022/03/10 07:16:07;;;;;;;36.03;16.63;;;;;;;3.25;62.80;102374.59;5078108;28;20085;-69
2022/03/10 07:18:33;;;;;;;35.83;17.88;;;;;;;3.38;62.34;102374.59;5077584;28;20049;-69
2022/03/10 07:20:59;;;;;;;34.20;16.73;;;;;;;3.53;62.18;102370.22;5095443;28;20035;-68
2022/03/10 07:23:24;;;;;;;35.50;17.38;;;;;;;3.58;61.86;102376.66;5077005;28;20510;-68
2022/03/10 07:25:49;;;;;;;33.38;16.95;;;;;;;3.60;61.49;102364.59;5074278;28;20028;-70
2022/03/10 07:28:15;;;;;;;31.35;17.35;;;;;;;3.78;61.57;102377.09;5075635;28;20119;-68
2022/03/10 07:30:40;;;;;;;33.88;17.65;;;;;;;4.00;60.38;102384.94;5075982;28;20034;-70
2022/03/10 07:33:06;;;;;;;32.90;16.23;;;;;;;4.28;59.71;102383.03;5075888;28;20364;-69
2022/03/10 07:35:31;;;;;;;30.70;16.33;;;;;;;4.41;58.13;102376.13;5094176;28;20051;-68
2022/03/10 07:37:59;;;;;;;35.97;16.65;;;;;;;4.52;58.34;102376.22;5075781;28;20020;-69
2022/03/10 07:40:25;;;;;;;40.33;16.60;;;;;;;4.77;57.90;102374.44;5095312;28;20076;-68
2022/03/10 07:42:50;;;;;;;35.97;16.92;;;;;;;5.08;56.72;102369.69;5093936;28;20028;-70
2022/03/10 07:45:15;;;;;;;32.08;15.93;;;;;;;9.30;46.65;102369.47;5094440;28;20023;-70
2022/03/10 07:47:41;;;;;;;33.85;17.02;;;;;;;11.13;41.56;102365.13;5074882;28;20046;-68
2022/03/10 07:50:07;;;;;;;31.77;17.25;;;;;;;12.27;38.46;102378.59;5076590;28;20048;-68
2022/03/10 07:52:33;;;;;;;34.58;17.90;;;;;;;12.59;37.66;102374.44;5095777;28;20024;-68
2022/03/10 07:54:58;;;;;;;32.03;16.67;;;;;;;12.27;37.91;102376.00;5093533;28;20497;-69
2022/03/10 07:57:24;;;;;;;30.75;18.05;;;;;;;13.32;35.79;102366.63;5077385;28;20016;-70
2022/03/10 07:59:50;;;;;;;31.25;18.13;;;;;;;13.34;35.38;102363.03;5095491;28;20027;-68
2022/03/10 08:02:15;;;;;;;33.50;17.48;;;;;;;12.73;36.85;102371.19;5077513;28;20492;-70
2022/03/10 08:04:41;;;;;;;28.27;18.27;;;;;;;11.78;38.93;102373.22;5095649;28;20063;-71
2022/03/10 08:07:06;;;;;;;28.17;17.45;;;;;;;12.87;36.83;102365.34;5094798;28;20028;-69
2022/03/10 08:09:31;;;;;;;31.05;18.80;;;;;;;13.45;35.17;102362.69;5077343;28;20379;-68
2022/03/10 08:11:56;;;;;;;31.88;18.30;;;;;;;14.33;33.54;102367.63;5076155;28;20031;-69
2022/03/10 08:14:22;;;;;;;30.92;17.38;;;;;;;15.51;31.81;102359.22;5076439;28;20458;-68
2022/03/10 08:16:47;;;;;;;29.67;18.45;;;;;;;15.71;30.92;102362.13;5095225;28;20020;-70
2022/03/10 08:19:13;;;;;;;30.35;17.98;;;;;;;16.57;29.71;102359.59;5076396;28;20020;-68
2022/03/10 08:21:38;;;;;;;29.65;18.10;;;;;;;17.16;29.12;102340.13;5095173;28;20367;-69
2022/03/10 08:24:04;;;;;;;28.27;18.30;;;;;;;16.53;29.71;102352.31;5092265;28;20117;-69
2022/03/10 08:26:30;;;;;;;28.88;18.20;;;;;;;16.16;30.19;102360.19;5095195;28;20030;-68
2022/03/10 08:28:55;;;;;;;26.90;17.42;;;;;;;17.25;28.72;102356.44;5076814;28;20107;-69
2022/03/10 08:31:21;;;;;;;27.55;18.77;;;;;;;17.21;28.46;102342.16;5077142;28;20024;-69
2022/03/10 08:33:47;;;;;;;31.92;18.73;;;;;;;16.46;29.96;102352.25;5076895;28;20020;-69
2022/03/10 08:36:13;;;;;;;28.48;18.10;;;;;;;16.77;28.73;102354.53;5094989;28;20024;-70
2022/03/10 08:38:38;;;;;;;30.70;17.92;;;;;;;17.13;29.03;102348.34;5076778;28;20028;-68
2022/03/10 08:41:04;;;;;;;27.10;18.13;;;;;;;16.62;29.31;102359.00;5093830;28;20115;-69
2022/03/10 08:43:31;;;;;;;32.22;17.95;;;;;;;17.31;28.03;102345.22;5094270;28;20028;-70
2022/03/10 08:45:57;;;;;;;30.85;17.75;;;;;;;17.98;27.34;102344.50;5075550;28;20454;-71
2022/03/10 08:48:22;;;;;;;32.55;17.67;;;;;;;18.01;27.44;102340.66;5075844;28;20119;-70
2022/03/10 08:50:48;;;;;;;30.02;18.20;;;;;;;17.39;27.91;102346.88;5094749;28;20055;-70
2022/03/10 08:53:13;;;;;;;31.63;17.25;;;;;;;18.35;26.70;102350.16;5094692;28;20035;-69
2022/03/10 08:55:38;;;;;;;27.63;17.77;;;;;;;17.98;27.40;102344.50;5093329;28;20115;-69
2022/03/10 08:58:04;;;;;;;29.92;17.88;;;;;;;19.34;25.85;102344.03;5093203;28;20475;-68
2022/03/10 09:00:29;;;;;;;28.75;18.30;;;;;;;18.53;26.49;102348.75;5075078;28;20032;-69
2022/03/10 09:02:57;;;;;;;28.73;18.52;;;;;;;18.79;26.28;102353.19;5093243;28;20028;-69
2022/03/10 09:05:23;;;;;;;26.88;17.40;;;;;;;19.23;25.77;102344.66;5094044;28;20467;-70
2022/03/10 09:07:48;;;;;;;30.15;18.30;;;;;;;19.29;25.26;102343.03;5093963;28;20039;-71
2022/03/10 09:10:13;;;;;;;29.75;17.80;;;;;;;20.78;24.25;102343.53;5093599;28;20519;-69
2022/03/10 09:12:40;;;;;;;26.55;17.63;;;;;;;19.61;25.05;102320.31;5076798;28;20023;-69
2022/03/10 09:15:07;;;;;;;29.65;17.98;;;;;;;18.82;25.28;102327.44;5094837;28;20410;-69
2022/03/10 09:17:32;;;;;;;30.88;17.73;;;;;;;19.34;25.21;102327.50;5075774;28;20485;-69
2022/03/10 09:19:58;;;;;;;28.30;18.15;;;;;;;19.19;25.68;102332.16;5076435;28;20103;-69
2022/03/10 09:22:25;;;;;;;31.40;17.88;;;;;;;20.34;24.08;102337.41;5076201;28;20032;-70
2022/03/10 09:24:51;;;;;;;28.30;18.02;;;;;;;21.22;23.95;102321.41;5076102;28;20016;-69
2022/03/10 09:27:16;;;;;;;27.17;17.38;;;;;;;21.06;24.57;102337.78;5076713;28;20111;-69
2022/03/10 09:29:42;;;;;;;31.48;17.83;;;;;;;20.96;23.64;102327.78;5076380;28;20062;-68
2022/03/10 09:32:09;;;;;;;27.17;17.70;;;;;;;20.80;24.01;102336.22;5094426;28;20459;-68
2022/03/10 09:34:34;;;;;;;29.65;16.95;;;;;;;21.10;23.64;102318.72;5093600;28;20482;-70
2022/03/10 09:36:59;;;;;;;28.25;17.25;;;;;;;22.31;22.74;102334.53;5093737;28;20053;-69
2022/03/10 09:39:25;;;;;;;26.92;16.85;;;;;;;22.25;23.10;102328.34;5076193;28;20455;-69
2022/03/10 09:41:50;;;;;;;30.17;17.33;;;;;;;22.53;22.21;102318.97;5093834;28;20027;-69
2022/03/10 09:44:20;;;;;;;26.08;16.77;;;;;;;21.49;23.50;102314.06;5093757;28;20020;-69
2022/03/10 09:46:49;;;;;;;28.15;16.58;;;;;;;21.16;24.11;102317.06;5075795;28;20463;-69
2022/03/10 09:49:14;;;;;;;31.23;16.75;;;;;;;21.80;23.33;102318.25;5075370;28;20130;-69
2022/03/10 09:51:41;;;;;;;24.23;16.25;;;;;;;21.51;23.61;102319.06;5093497;28;20099;-70
2022/03/10 09:54:07;;;;;;;23.98;15.85;;;;;;;21.68;23.60;102296.38;5074710;28;20103;-69
2022/03/10 09:56:36;;;;;;;26.27;16.13;;;;;;;22.47;22.90;102299.63;5073387;28;20157;-70
2022/03/10 09:59:04;;;;;;;24.33;16.35;;;;;;;22.74;22.70;102293.84;5091598;28;20394;-69
2022/03/10 10:01:30;;;;;;;26.90;16.45;;;;;;;22.72;22.61;102295.91;5094060;28;20406;-69
2022/03/10 10:03:55;;;;;;;25.77;15.75;;;;;;;22.27;23.27;102297.31;5093099;28;20035;-68
2022/03/10 10:06:20;;;;;;;25.73;16.33;;;;;;;21.74;24.01;102298.09;5075753;28;20164;-68
2022/03/10 10:08:54;;;;;;;29.05;16.23;;;;;;;21.23;24.52;102299.34;5094145;28;20099;-69
2022/03/10 10:11:29;;;;;;;25.13;16.00;;;;;;;20.68;25.79;102300.16;5093736;28;20095;-69
2022/03/10 10:13:55;;;;;;;25.70;16.02;;;;;;;20.80;25.06;102300.28;5076195;28;20016;-68
2022/03/10 10:16:21;;;;;;;28.50;16.00;;;;;;;20.06;26.82;102299.28;5092986;28;20030;-69
2022/03/10 10:18:46;;;;;;;28.55;16.33;;;;;;;18.06;28.64;102295.59;5094015;28;20023;-71
2022/03/10 10:21:18;;;;;;;27.02;15.75;;;;;;;16.68;31.39;102282.53;5093740;28;20087;-68
2022/03/10 10:23:43;;;;;;;27.38;15.68;;;;;;;16.43;31.52;102296.03;5075894;28;20020;-69
2022/03/10 10:26:13;;;;;;;29.38;15.30;;;;;;;15.64;33.60;102290.81;5076315;28;20058;-69
2022/03/10 10:28:40;;;;;;;27.92;15.85;;;;;;;15.68;33.87;102289.53;5074396;28;20127;-69
2022/03/10 10:31:11;;;;;;;27.15;15.52;;;;;;;15.49;33.93;102285.66;5073695;28;20432;-69
2022/03/10 10:33:38;;;;;;;26.80;14.98;;;;;;;15.44;33.88;102295.00;5074641;28;20060;-70
2022/03/10 10:36:19;;;;;;;25.20;15.35;;;;;;;15.79;33.54;102283.81;5074364;28;20038;-69
2022/03/10 10:38:47;;;;;;;28.08;15.45;;;;;;;15.62;33.52;102292.81;5093661;28;20065;-70
2022/03/10 10:41:25;;;;;;;25.70;14.80;;;;;;;15.96;33.55;102279.16;5092869;28;20039;-68
2022/03/10 10:44:12;;;;;;;28.42;14.68;;;;;;;16.60;32.15;102275.69;5093057;28;20024;-70
2022/03/10 10:46:39;;;;;;;27.42;15.45;;;;;;;16.65;32.35;102273.28;5092760;28;20471;-66
2022/03/10 10:49:16;;;;;;;27.35;15.48;;;;;;;16.63;32.39;102269.25;5078138;28;20084;-67
2022/03/10 10:51:45;;;;;;;29.17;15.45;;;;;;;16.26;32.99;102278.25;5052503;28;20419;-69
2022/03/10 10:54:26;;;;;;;29.10;15.02;;;;;;;16.01;33.97;102273.41;5052594;28;20044;-68
2022/03/10 10:57:05;;;;;;;25.23;15.40;;;;;;;16.52;32.64;102268.00;5052178;28;20029;-68
2022/03/10 10:59:35;;;;;;;24.30;15.00;;;;;;;16.58;32.61;102266.44;5050872;28;20037;-68
2022/03/10 11:02:09;;;;;;;26.40;15.02;;;;;;;16.88;32.08;102267.84;5053099;28;20029;-70
2022/03/10 11:04:37;;;;;;;25.05;14.20;;;;;;;17.17;32.26;102260.75;5051255;28;20029;-68
2022/03/10 11:07:03;;;;;;;31.60;15.30;;;;;;;16.94;32.18;102260.25;5051877;28;20029;-68
2022/03/10 11:09:30;;;;;;;26.42;14.52;;;;;;;16.75;32.10;102261.72;5051418;28;20495;-69
2022/03/10 11:11:56;;;;;;;25.77;14.65;;;;;;;16.65;32.39;102256.84;5052959;28;20472;-69
2022/03/10 11:14:21;;;;;;;26.45;14.77;;;;;;;17.39;31.36;102247.59;5055114;28;20032;-67
2022/03/10 11:16:48;;;;;;;25.33;14.40;;;;;;;17.13;31.35;102243.88;5053109;28;20052;-68